Haro, Spain
Current Conditions -  °F | °C
As of 10:30 PM on Friday 28 Nov 2014 (Local Time) from LEVT Reporting Station
Broken Clouds Broken Clouds  
Wind Chill: 54°   Ceiling: 3000
Heat Index: 54°   Visibility: 6mi
Dew Point: 48°   Wind: 14mph
Humidity: 82%   Direction: 90°E
Pressure: 29.35"   Gusts: NA
Location:  42.58°N, 2.85°W
Report Text: LEVT 282130Z 09012KT 9999 FEW020 BKN030 12/09 Q0994
Loading
Personal Weather Stations






























Interactive Weather Map New forecast layout! Learn more

10-Day Weather Forecast

Advertisements
Track Severe Weather on mobile